createdAt,value
2023-03-31T00:02:15.919Z,4.05
2023-03-31T00:04:52.386Z,4.30
2023-03-31T00:07:24.802Z,3.10
2023-03-31T00:10:03.701Z,3.03
2023-03-31T00:12:37.517Z,3.35
2023-03-31T00:15:04.572Z,3.30
2023-03-31T00:17:33.391Z,3.78
2023-03-31T00:20:04.532Z,3.03
2023-03-31T00:22:31.806Z,2.70
2023-03-31T00:24:58.699Z,3.20
2023-03-31T00:27:25.567Z,2.97
2023-03-31T00:29:53.094Z,3.25
2023-03-31T00:32:19.951Z,2.70
2023-03-31T00:34:46.781Z,2.33
2023-03-31T00:37:14.920Z,2.88
2023-03-31T00:39:42.168Z,2.75
2023-03-31T00:42:13.074Z,2.40
2023-03-31T00:45:15.422Z,2.37
2023-03-31T00:48:03.342Z,1.80
2023-03-31T00:50:36.148Z,2.95
2023-03-31T00:53:10.912Z,3.50
2023-03-31T00:55:46.953Z,2.75
2023-03-31T00:58:20.125Z,2.47
2023-03-31T01:00:49.106Z,2.28
2023-03-31T01:03:16.490Z,2.25
2023-03-31T01:05:50.484Z,2.55
2023-03-31T01:08:19.332Z,2.20
2023-03-31T01:11:01.790Z,2.47
2023-03-31T01:13:29.780Z,2.88
2023-03-31T01:15:56.626Z,3.33
2023-03-31T01:18:25.761Z,2.85
2023-03-31T01:21:30.807Z,3.13
2023-03-31T01:24:49.972Z,3.40
2023-03-31T01:27:34.928Z,3.95
2023-03-31T01:30:25.137Z,4.05
2023-03-31T01:33:15.818Z,3.67
2023-03-31T01:35:55.001Z,3.60
2023-03-31T01:38:24.823Z,3.20
2023-03-31T01:41:00.718Z,3.97
2023-03-31T01:43:44.674Z,3.97
2023-03-31T01:46:53.302Z,3.88
2023-03-31T01:49:41.356Z,3.88
2023-03-31T01:52:27.107Z,3.40
2023-03-31T01:55:01.847Z,3.45
2023-03-31T01:57:34.339Z,4.22
2023-03-31T02:00:13.790Z,3.65
2023-03-31T02:02:51.528Z,4.25
2023-03-31T02:05:26.263Z,2.90
2023-03-31T02:08:12.243Z,3.60
2023-03-31T02:10:42.533Z,3.38
2023-03-31T02:13:11.565Z,3.70
2023-03-31T02:15:46.759Z,3.90
2023-03-31T02:18:18.693Z,4.00
2023-03-31T02:20:50.020Z,3.58
2023-03-31T02:23:23.446Z,3.80
2023-03-31T02:25:57.879Z,3.05
2023-03-31T02:28:28.340Z,3.88
2023-03-31T02:31:16.370Z,3.43
2023-03-31T02:33:43.221Z,3.10
2023-03-31T02:36:10.744Z,3.15
2023-03-31T02:38:51.436Z,3.55
2023-03-31T02:41:18.280Z,3.70
2023-03-31T02:43:45.258Z,2.83
2023-03-31T02:46:12.034Z,3.30
2023-03-31T02:48:48.175Z,3.53
2023-03-31T02:51:44.759Z,3.10
2023-03-31T02:54:40.188Z,3.28
2023-03-31T02:57:26.492Z,3.07
2023-03-31T03:00:28.560Z,3.40
2023-03-31T03:03:27.314Z,3.45
2023-03-31T03:06:05.925Z,3.00
2023-03-31T03:08:55.405Z,3.20
2023-03-31T03:11:36.669Z,3.40
2023-03-31T03:14:27.859Z,3.22
2023-03-31T03:17:02.767Z,3.65
2023-03-31T03:19:29.773Z,2.65
2023-03-31T03:21:57.893Z,3.42
2023-03-31T03:24:29.241Z,3.33
2023-03-31T03:26:56.869Z,2.47
2023-03-31T03:29:23.676Z,3.60
2023-03-31T03:31:50.607Z,3.15
2023-03-31T03:34:20.226Z,3.40
2023-03-31T03:36:47.362Z,3.20
2023-03-31T03:39:14.449Z,2.83
2023-03-31T03:41:41.225Z,2.90
2023-03-31T03:44:08.306Z,2.67
2023-03-31T03:46:35.471Z,3.10
2023-03-31T03:49:02.402Z,2.67
2023-03-31T03:51:29.702Z,2.15
2023-03-31T03:53:56.498Z,2.85
2023-03-31T03:56:23.255Z,2.50
2023-03-31T03:58:50.920Z,2.60
2023-03-31T04:01:18.310Z,2.43
2023-03-31T04:03:45.399Z,2.50
2023-03-31T04:06:12.346Z,3.03
2023-03-31T04:08:39.212Z,2.10
2023-03-31T04:11:15.643Z,2.25
2023-03-31T04:13:47.010Z,2.30
2023-03-31T04:16:14.536Z,2.22
2023-03-31T04:18:42.840Z,2.42
2023-03-31T04:21:12.392Z,2.53
2023-03-31T04:23:46.661Z,2.20
2023-03-31T04:26:16.202Z,2.60
2023-03-31T04:28:46.825Z,2.35
2023-03-31T04:31:16.606Z,3.03
2023-03-31T04:33:46.306Z,2.60
2023-03-31T04:36:19.298Z,2.40
2023-03-31T04:38:50.575Z,2.53
2023-03-31T04:41:17.728Z,2.38
2023-03-31T04:43:44.580Z,2.28
2023-03-31T04:46:11.811Z,2.95
2023-03-31T04:48:39.132Z,2.88
2023-03-31T04:51:06.270Z,2.60
2023-03-31T04:53:33.363Z,2.47
2023-03-31T04:56:00.438Z,2.60
2023-03-31T04:58:27.483Z,2.55
2023-03-31T05:00:54.378Z,2.28
2023-03-31T05:03:22.424Z,2.00
2023-03-31T05:05:49.475Z,2.53
2023-03-31T05:08:16.593Z,2.10
2023-03-31T05:10:43.566Z,2.10
2023-03-31T05:13:11.168Z,2.65
2023-03-31T05:15:41.084Z,2.10
2023-03-31T05:18:08.473Z,2.35
2023-03-31T05:20:35.490Z,2.30
2023-03-31T05:23:02.403Z,2.97
2023-03-31T05:25:33.266Z,3.30
2023-03-31T05:28:01.165Z,2.80
2023-03-31T05:30:28.879Z,2.00
2023-03-31T05:32:56.951Z,2.60
2023-03-31T05:35:24.378Z,2.55
2023-03-31T05:37:51.560Z,2.33
2023-03-31T05:40:18.467Z,2.60
2023-03-31T05:42:45.439Z,2.40
2023-03-31T05:45:12.689Z,2.40
2023-03-31T05:47:39.776Z,2.17
2023-03-31T05:50:09.026Z,2.30
2023-03-31T05:52:36.689Z,2.27
2023-03-31T05:55:04.511Z,2.25
2023-03-31T05:57:32.100Z,2.47
2023-03-31T05:59:59.135Z,2.13
2023-03-31T06:02:26.175Z,2.33
2023-03-31T06:04:53.211Z,2.23
2023-03-31T06:07:20.056Z,2.05
2023-03-31T06:09:46.948Z,2.22
2023-03-31T06:12:13.961Z,1.95
2023-03-31T06:14:40.791Z,2.05
2023-03-31T06:17:07.761Z,1.60
2023-03-31T06:19:34.902Z,1.90
2023-03-31T06:22:02.356Z,1.70
2023-03-31T06:24:29.361Z,1.88
2023-03-31T06:26:56.274Z,1.90
2023-03-31T06:29:23.030Z,2.13
2023-03-31T06:31:49.897Z,2.13
2023-03-31T06:34:18.526Z,1.88
2023-03-31T06:36:47.757Z,2.38
2023-03-31T06:39:14.696Z,1.63
2023-03-31T06:41:42.034Z,1.40
2023-03-31T06:44:09.016Z,1.73
2023-03-31T06:46:35.954Z,1.45
2023-03-31T06:49:02.862Z,1.60
2023-03-31T06:51:31.128Z,1.90
2023-03-31T06:53:59.416Z,1.63
2023-03-31T06:56:27.320Z,1.60
2023-03-31T06:58:54.237Z,1.70
2023-03-31T07:01:21.074Z,1.55
2023-03-31T07:03:49.565Z,1.73
2023-03-31T07:06:16.508Z,1.63
2023-03-31T07:08:43.376Z,1.30
2023-03-31T07:11:10.439Z,1.45
2023-03-31T07:13:37.566Z,1.73
2023-03-31T07:16:05.521Z,1.55
2023-03-31T07:18:35.104Z,1.30
2023-03-31T07:21:05.103Z,1.77
2023-03-31T07:23:34.659Z,1.50
2023-03-31T07:26:02.625Z,1.67
2023-03-31T07:28:30.565Z,2.10
2023-03-31T07:30:57.370Z,1.70
2023-03-31T07:33:24.264Z,1.50
2023-03-31T07:36:03.585Z,1.30
2023-03-31T07:38:37.380Z,1.95
2023-03-31T07:41:09.242Z,2.05
2023-03-31T07:43:37.054Z,1.57
2023-03-31T07:46:05.646Z,2.13
2023-03-31T07:48:33.907Z,1.73
2023-03-31T07:51:00.792Z,2.25
2023-03-31T07:53:32.420Z,2.13
2023-03-31T07:55:59.286Z,2.20
2023-03-31T07:58:27.028Z,2.63
2023-03-31T08:00:53.962Z,2.63
2023-03-31T08:03:20.781Z,2.83
2023-03-31T08:05:48.213Z,3.08
2023-03-31T08:08:16.226Z,2.80
2023-03-31T08:10:42.968Z,3.50
2023-03-31T08:13:09.732Z,3.33
2023-03-31T08:15:36.855Z,3.25
2023-03-31T08:18:04.463Z,3.20
2023-03-31T08:20:31.396Z,3.83
2023-03-31T08:22:58.252Z,3.58
2023-03-31T08:25:25.056Z,3.30
2023-03-31T08:27:52.123Z,4.45
2023-03-31T08:30:20.442Z,3.30
2023-03-31T08:32:47.294Z,2.17
2023-03-31T08:35:14.108Z,2.70
2023-03-31T08:37:40.854Z,3.08
2023-03-31T08:40:15.392Z,3.90
2023-03-31T08:42:49.685Z,3.45
2023-03-31T08:45:36.249Z,3.27
2023-03-31T08:48:26.143Z,3.50
2023-03-31T08:51:04.944Z,3.20
2023-03-31T08:53:39.311Z,3.30
2023-03-31T08:56:14.937Z,3.35
2023-03-31T08:58:47.836Z,3.27
2023-03-31T09:01:37.938Z,3.55
2023-03-31T09:04:32.459Z,3.08
2023-03-31T09:07:02.671Z,2.95
2023-03-31T09:09:35.417Z,3.83
2023-03-31T09:12:17.299Z,4.23
2023-03-31T09:14:59.077Z,3.40
2023-03-31T09:17:33.813Z,2.95
2023-03-31T09:20:10.091Z,2.80
2023-03-31T09:22:43.611Z,3.88
2023-03-31T09:25:20.672Z,3.27
2023-03-31T09:27:49.716Z,3.65
2023-03-31T09:30:26.054Z,4.03
2023-03-31T09:32:59.436Z,3.75
2023-03-31T09:35:26.850Z,3.53
2023-03-31T09:37:54.250Z,2.87
2023-03-31T09:40:27.112Z,3.20
2023-03-31T09:43:03.975Z,3.83
2023-03-31T09:45:31.940Z,3.40
2023-03-31T09:48:02.426Z,3.35
2023-03-31T09:50:30.251Z,2.60
2023-03-31T09:53:01.934Z,3.05
2023-03-31T09:55:45.941Z,3.35
2023-03-31T09:58:15.975Z,2.88
2023-03-31T10:00:56.125Z,4.47
2023-03-31T10:03:24.477Z,2.87
2023-03-31T10:05:54.202Z,2.90
2023-03-31T10:08:30.736Z,3.65
2023-03-31T10:11:11.456Z,2.97
2023-03-31T10:14:00.654Z,3.20
2023-03-31T10:16:50.064Z,2.87
2023-03-31T10:19:22.297Z,3.00
2023-03-31T10:21:57.388Z,2.85
2023-03-31T10:24:25.055Z,2.70
2023-03-31T10:26:57.277Z,2.63
2023-03-31T10:29:31.775Z,3.17
2023-03-31T10:32:15.518Z,2.92
2023-03-31T10:34:43.167Z,2.80
2023-03-31T10:37:22.574Z,2.80
2023-03-31T10:39:58.955Z,2.83
2023-03-31T10:42:27.604Z,2.70
2023-03-31T10:45:37.420Z,3.45
2023-03-31T10:48:07.170Z,3.38
2023-03-31T10:50:36.943Z,3.45
2023-03-31T10:53:06.173Z,2.30
2023-03-31T10:55:46.408Z,2.43
2023-03-31T10:58:34.055Z,2.88
2023-03-31T11:01:34.798Z,2.78
2023-03-31T11:04:09.551Z,2.50
2023-03-31T11:06:48.436Z,2.83
2023-03-31T11:09:47.900Z,2.47
2023-03-31T11:12:27.096Z,3.08
2023-03-31T11:15:21.229Z,2.75
2023-03-31T11:18:14.578Z,2.60
2023-03-31T11:20:47.410Z,2.90
2023-03-31T11:23:46.862Z,2.70
2023-03-31T11:26:18.274Z,2.88
2023-03-31T11:29:18.005Z,3.10
2023-03-31T11:32:09.632Z,2.35
2023-03-31T11:34:54.048Z,3.38
2023-03-31T11:37:31.964Z,2.40
2023-03-31T11:40:19.111Z,3.40
2023-03-31T11:42:50.999Z,4.57
2023-03-31T11:45:41.833Z,3.13
2023-03-31T11:48:22.249Z,2.22
2023-03-31T11:50:50.602Z,3.10
2023-03-31T11:53:21.183Z,3.17
2023-03-31T11:55:51.726Z,3.25
2023-03-31T11:58:28.709Z,2.80
2023-03-31T12:01:36.423Z,2.92
2023-03-31T12:04:21.045Z,2.93
2023-03-31T12:06:49.941Z,3.03
2023-03-31T12:09:27.430Z,2.97
2023-03-31T12:12:17.193Z,2.45
2023-03-31T12:14:49.366Z,2.50
2023-03-31T12:17:23.425Z,2.53
2023-03-31T12:19:56.732Z,3.10
2023-03-31T12:22:31.578Z,2.65
2023-03-31T12:24:59.007Z,2.55
2023-03-31T12:27:40.311Z,2.45
2023-03-31T12:30:18.401Z,2.47
2023-03-31T12:33:06.754Z,2.58
2023-03-31T12:36:02.401Z,2.50
2023-03-31T12:38:58.012Z,2.10
2023-03-31T12:41:39.528Z,3.20
2023-03-31T12:44:31.059Z,2.53
2023-03-31T12:47:23.336Z,3.47
2023-03-31T12:50:18.814Z,3.63
2023-03-31T12:52:54.259Z,3.05
2023-03-31T12:55:24.327Z,3.10
2023-03-31T12:57:51.299Z,3.57
2023-03-31T13:00:21.306Z,3.05
2023-03-31T13:02:49.164Z,3.90
2023-03-31T13:05:37.847Z,3.70
2023-03-31T13:08:06.027Z,2.85
2023-03-31T13:10:33.710Z,2.80
2023-03-31T13:13:12.008Z,3.38
2023-03-31T13:15:38.963Z,3.22
2023-03-31T13:18:07.855Z,2.47
2023-03-31T13:20:38.572Z,3.22
2023-03-31T13:23:22.558Z,2.33
2023-03-31T13:25:54.525Z,2.60
2023-03-31T13:28:25.635Z,2.65
2023-03-31T13:30:54.618Z,2.28
2023-03-31T13:33:24.255Z,2.67
2023-03-31T13:36:09.970Z,2.57
2023-03-31T13:38:43.139Z,2.33
2023-03-31T13:42:06.091Z,2.90
2023-03-31T13:44:55.505Z,3.05
2023-03-31T13:47:43.463Z,2.90
2023-03-31T13:50:10.264Z,2.60
2023-03-31T13:52:48.484Z,2.90
2023-03-31T13:55:43.024Z,2.78
2023-03-31T13:58:35.496Z,2.45
2023-03-31T14:01:11.499Z,2.83
2023-03-31T14:04:09.326Z,2.40
2023-03-31T14:06:49.875Z,2.53
2023-03-31T14:09:34.156Z,2.50
2023-03-31T14:12:02.257Z,2.30
2023-03-31T14:14:29.930Z,2.13
2023-03-31T14:17:01.696Z,1.70
2023-03-31T14:19:50.368Z,2.22
2023-03-31T14:22:23.108Z,1.80
